createdAt,value
2018-08-25T00:01:49.708Z,94706.30
2018-08-25T00:04:16.043Z,94707.99
2018-08-25T00:06:42.495Z,94707.51
2018-08-25T00:09:08.830Z,94713.22
2018-08-25T00:11:35.155Z,94710.64
2018-08-25T00:14:01.502Z,94704.31
2018-08-25T00:16:27.920Z,94711.11
2018-08-25T00:18:54.252Z,94711.58
2018-08-25T00:21:20.594Z,94705.33
2018-08-25T00:23:46.960Z,94710.91
2018-08-25T00:26:13.304Z,94707.84
2018-08-25T00:28:39.635Z,94709.28
2018-08-25T00:31:06.011Z,94709.28
2018-08-25T00:33:32.335Z,94708.23
2018-08-25T00:35:58.654Z,94707.70
2018-08-25T00:38:25.001Z,94700.11
2018-08-25T00:40:51.467Z,94713.13
2018-08-25T00:43:17.868Z,94707.16
2018-08-25T00:45:44.248Z,94714.42
2018-08-25T00:48:10.679Z,94717.56
2018-08-25T00:50:37.036Z,94718.50
2018-08-25T00:53:03.364Z,94720.63
2018-08-25T00:55:29.723Z,94722.24
2018-08-25T00:57:56.051Z,94723.95
2018-08-25T01:00:22.383Z,94717.07
2018-08-25T01:02:48.715Z,94718.71
2018-08-25T01:05:15.047Z,94729.09
2018-08-25T01:07:41.407Z,94727.66
2018-08-25T01:10:07.738Z,94724.48
2018-08-25T01:12:34.171Z,94720.06
2018-08-25T01:15:00.519Z,94719.37
2018-08-25T01:17:26.936Z,94726.64
2018-08-25T01:19:53.331Z,94729.97
2018-08-25T01:22:19.657Z,94729.97
2018-08-25T01:24:46.024Z,94724.95
2018-08-25T01:27:12.457Z,94731.08
2018-08-25T01:29:38.796Z,94730.79
2018-08-25T01:32:05.119Z,94729.41
2018-08-25T01:34:31.450Z,94728.36
2018-08-25T01:36:57.823Z,94728.69
2018-08-25T01:39:24.189Z,94733.91
2018-08-25T01:41:50.553Z,94737.05
2018-08-25T01:44:16.882Z,94738.27
2018-08-25T01:46:43.278Z,94739.69
2018-08-25T01:49:09.648Z,94741.91
2018-08-25T01:51:35.981Z,94729.13
2018-08-25T01:54:02.418Z,94729.89
2018-08-25T01:56:28.756Z,94730.11
2018-08-25T01:58:55.169Z,94723.56
2018-08-25T02:01:21.592Z,94726.29
2018-08-25T02:03:47.962Z,94724.94
2018-08-25T02:06:14.340Z,94720.09
2018-08-25T02:08:40.697Z,94717.78
2018-08-25T02:11:07.131Z,94721.75
2018-08-25T02:13:33.457Z,94725.62
2018-08-25T02:15:59.809Z,94724.56
2018-08-25T02:18:26.213Z,94724.03
2018-08-25T02:20:52.556Z,94725.88
2018-08-25T02:23:18.898Z,94724.33
2018-08-25T02:25:45.377Z,94725.24
2018-08-25T02:28:11.790Z,94722.81
2018-08-25T02:30:38.102Z,94726.13
2018-08-25T02:33:04.425Z,94727.63
2018-08-25T02:35:30.742Z,94724.84
2018-08-25T02:37:57.110Z,94728.03
2018-08-25T02:40:23.454Z,94728.30
2018-08-25T02:42:49.795Z,94731.34
2018-08-25T02:45:16.155Z,94732.17
2018-08-25T02:47:42.536Z,94735.52
2018-08-25T02:50:08.859Z,94733.98
2018-08-25T02:52:35.188Z,94733.92
2018-08-25T02:55:01.534Z,94724.48
2018-08-25T02:57:27.873Z,94724.48
2018-08-25T02:59:54.203Z,94723.25
2018-08-25T03:02:20.530Z,94727.95
2018-08-25T03:04:46.930Z,94732.28
2018-08-25T03:07:13.256Z,94730.88
2018-08-25T03:09:39.583Z,94734.27
2018-08-25T03:12:05.913Z,94734.95
2018-08-25T03:14:32.256Z,94733.43
2018-08-25T03:16:58.615Z,94730.73
2018-08-25T03:19:24.948Z,94739.50
2018-08-25T03:21:51.314Z,94735.48
2018-08-25T03:24:17.645Z,94732.70
2018-08-25T03:26:44.032Z,94734.58
2018-08-25T03:29:10.410Z,94739.20
2018-08-25T03:31:36.745Z,94742.73
2018-08-25T03:34:03.168Z,94738.92
2018-08-25T03:36:29.497Z,94745.05
2018-08-25T03:38:55.827Z,94750.94
2018-08-25T03:41:22.153Z,94746.95
2018-08-25T03:43:48.536Z,94746.39
2018-08-25T03:46:14.861Z,94743.05
2018-08-25T03:48:41.193Z,94745.22
2018-08-25T03:51:07.552Z,94743.16
2018-08-25T03:53:33.878Z,94741.63
2018-08-25T03:56:00.207Z,94739.58
2018-08-25T03:58:26.610Z,94739.70
2018-08-25T04:00:52.942Z,94746.91
2018-08-25T04:03:19.292Z,94750.50
2018-08-25T04:05:45.643Z,94751.84
2018-08-25T04:08:12.031Z,94756.39
2018-08-25T04:10:38.400Z,94755.30
2018-08-25T04:13:04.738Z,94750.73
2018-08-25T04:15:31.055Z,94760.50
2018-08-25T04:17:57.454Z,94761.20
2018-08-25T04:20:23.768Z,94761.00
2018-08-25T04:22:50.092Z,94762.58
2018-08-25T04:25:16.449Z,94761.55
2018-08-25T04:27:42.821Z,94763.61
2018-08-25T04:30:09.154Z,94767.64
2018-08-25T04:32:35.482Z,94766.68
2018-08-25T04:35:01.822Z,94770.75
2018-08-25T04:37:28.138Z,94769.00
2018-08-25T04:39:54.458Z,94765.13
2018-08-25T04:42:20.796Z,94767.19
2018-08-25T04:44:47.127Z,94763.78
2018-08-25T04:47:13.493Z,94761.88
2018-08-25T04:49:39.829Z,94769.67
2018-08-25T04:52:06.155Z,94766.16
2018-08-25T04:54:32.487Z,94764.95
2018-08-25T04:56:58.825Z,94760.05
2018-08-25T04:59:25.161Z,94762.38
2018-08-25T05:01:51.573Z,94758.91
2018-08-25T05:04:17.900Z,94759.06
2018-08-25T05:06:44.228Z,94764.83
2018-08-25T05:09:10.547Z,94765.59
2018-08-25T05:11:36.868Z,94758.94
2018-08-25T05:14:03.200Z,94758.47
2018-08-25T05:16:29.528Z,94753.19
2018-08-25T05:18:55.864Z,94750.52
2018-08-25T05:21:22.198Z,94752.52
2018-08-25T05:23:48.549Z,94755.82
2018-08-25T05:26:14.895Z,94757.76
2018-08-25T05:28:41.250Z,94759.31
2018-08-25T05:31:07.616Z,94760.33
2018-08-25T05:33:33.987Z,94758.92
2018-08-25T05:36:00.343Z,94763.34
2018-08-25T05:38:26.676Z,94763.96
2018-08-25T05:40:53.036Z,94762.52
2018-08-25T05:43:19.503Z,94762.60
2018-08-25T05:45:45.859Z,94756.29
2018-08-25T05:48:12.234Z,94765.12
2018-08-25T05:50:38.564Z,94764.26
2018-08-25T05:53:04.899Z,94762.28
2018-08-25T05:55:31.268Z,94761.89
2018-08-25T05:57:57.608Z,94767.82
2018-08-25T06:00:23.948Z,94761.97
2018-08-25T06:02:50.287Z,94769.12
2018-08-25T06:05:16.608Z,94759.81
2018-08-25T06:07:42.941Z,94763.83
2018-08-25T06:10:09.350Z,94768.03
2018-08-25T06:12:35.705Z,94767.84
2018-08-25T06:15:02.143Z,94770.34
2018-08-25T06:17:28.482Z,94770.69
2018-08-25T06:19:54.814Z,94771.56
2018-08-25T06:22:21.193Z,94769.86
2018-08-25T06:24:47.595Z,94771.16
2018-08-25T06:27:13.939Z,94768.52
2018-08-25T06:29:40.327Z,94769.39
2018-08-25T06:32:06.673Z,94761.64
2018-08-25T06:34:33.048Z,94767.16
2018-08-25T06:36:59.394Z,94766.75
2018-08-25T06:39:25.730Z,94765.87
2018-08-25T06:41:52.137Z,94765.59
2018-08-25T06:44:18.477Z,94761.78
2018-08-25T06:46:44.845Z,94757.28
2018-08-25T06:49:11.176Z,94757.98
2018-08-25T06:51:37.516Z,94762.73
2018-08-25T06:56:36.501Z,94763.13
2018-08-25T06:59:02.847Z,94766.06
2018-08-25T07:01:29.192Z,94768.78
2018-08-25T07:03:55.677Z,94766.33
2018-08-25T07:06:22.046Z,94761.24
2018-08-25T07:08:48.394Z,94756.86
2018-08-25T07:11:14.723Z,94758.97
2018-08-25T07:13:41.128Z,94761.50
2018-08-25T07:16:07.492Z,94762.04
2018-08-25T07:18:33.855Z,94757.00
2018-08-25T07:21:00.182Z,94764.13
2018-08-25T07:23:26.506Z,94756.38
2018-08-25T07:25:52.893Z,94759.03
2018-08-25T07:28:19.230Z,94754.21
2018-08-25T07:30:45.625Z,94759.70
2018-08-25T07:33:11.954Z,94764.81
2018-08-25T07:35:38.285Z,94756.24
2018-08-25T07:38:04.642Z,94757.25
2018-08-25T07:40:30.993Z,94754.19
2018-08-25T07:42:57.325Z,94749.49
2018-08-25T07:45:23.747Z,94752.42
2018-08-25T07:47:50.011Z,94752.59
2018-08-25T07:50:16.314Z,94752.84
2018-08-25T07:52:42.658Z,94754.14
2018-08-25T07:55:09.001Z,94748.69
2018-08-25T07:57:35.378Z,94748.69
2018-08-25T08:00:01.711Z,94750.30
2018-08-25T08:02:28.073Z,94748.75
2018-08-25T08:04:54.456Z,94745.28
2018-08-25T08:07:20.787Z,94747.11
2018-08-25T08:09:47.168Z,94744.78
2018-08-25T08:12:13.524Z,94746.55
2018-08-25T08:14:39.853Z,94752.13
2018-08-25T08:17:06.215Z,94743.61
2018-08-25T08:19:32.557Z,94749.26
2018-08-25T08:21:58.920Z,94747.02
2018-08-25T08:24:25.260Z,94749.39
2018-08-25T08:26:51.620Z,94745.85
2018-08-25T08:29:17.954Z,94742.38
2018-08-25T08:31:44.334Z,94737.75
2018-08-25T08:34:10.690Z,94737.46
2018-08-25T08:36:37.049Z,94738.22
2018-08-25T08:39:03.391Z,94737.18
2018-08-25T08:41:29.772Z,94740.94
2018-08-25T08:43:56.167Z,94738.47
2018-08-25T08:46:22.479Z,94735.77
2018-08-25T08:48:48.816Z,94734.34
2018-08-25T08:51:15.140Z,94728.76
2018-08-25T08:53:41.480Z,94728.25
2018-08-25T08:56:07.819Z,94727.30
2018-08-25T08:58:34.164Z,94725.13
2018-08-25T09:01:00.532Z,94721.91
2018-08-25T09:03:27.041Z,94720.30
2018-08-25T09:05:53.338Z,94719.66
2018-08-25T09:08:19.725Z,94721.31
2018-08-25T09:10:46.054Z,94715.06
2018-08-25T09:13:12.426Z,94713.55
2018-08-25T09:15:38.786Z,94709.60
2018-08-25T09:18:05.132Z,94706.52
2018-08-25T09:20:31.587Z,94700.92
2018-08-25T09:22:57.944Z,94693.28
2018-08-25T09:25:24.281Z,94695.68
2018-08-25T09:27:50.614Z,94689.03
2018-08-25T09:30:17.281Z,94690.98
2018-08-25T09:32:43.648Z,94685.94
2018-08-25T09:35:10.045Z,94687.03
2018-08-25T09:37:36.387Z,94684.29
2018-08-25T09:40:02.766Z,94678.41
2018-08-25T09:42:29.099Z,94674.00
2018-08-25T09:44:55.471Z,94680.81
2018-08-25T09:47:21.857Z,94672.83
2018-08-25T09:49:48.191Z,94668.95
2018-08-25T09:52:14.599Z,94668.69
2018-08-25T09:54:40.995Z,94668.41
2018-08-25T09:57:07.327Z,94665.87
2018-08-25T09:59:33.688Z,94660.63
2018-08-25T10:02:00.052Z,94663.22
2018-08-25T10:04:26.388Z,94656.34
2018-08-25T10:06:52.868Z,94657.13
2018-08-25T10:09:19.236Z,94648.89
2018-08-25T10:11:45.575Z,94650.87
2018-08-25T10:14:11.949Z,94650.58
2018-08-25T10:16:38.366Z,94651.13
2018-08-25T10:19:04.720Z,94651.81
2018-08-25T10:21:31.055Z,94648.72
2018-08-25T10:23:57.411Z,94645.25
2018-08-25T10:26:23.814Z,94651.42
2018-08-25T10:28:50.169Z,94643.25
2018-08-25T10:31:16.505Z,94642.71
2018-08-25T10:33:42.859Z,94636.14
2018-08-25T10:36:09.185Z,94633.05
2018-08-25T10:38:35.565Z,94632.50
2018-08-25T10:41:01.912Z,94624.67
2018-08-25T10:43:28.287Z,94625.08
2018-08-25T10:45:54.705Z,94621.61
2018-08-25T10:48:21.070Z,94618.04
2018-08-25T10:50:47.443Z,94620.09
2018-08-25T10:53:13.764Z,94621.52
2018-08-25T10:55:40.136Z,94618.73
2018-08-25T10:58:06.486Z,94624.31
2018-08-25T11:00:32.874Z,94624.08
2018-08-25T11:02:59.235Z,94620.74
2018-08-25T11:05:25.629Z,94615.91
2018-08-25T11:07:51.972Z,94614.27
2018-08-25T11:10:18.413Z,94618.67
2018-08-25T11:12:44.804Z,94609.96
2018-08-25T11:15:11.139Z,94610.98
2018-08-25T11:17:37.519Z,94602.73
2018-08-25T11:20:03.886Z,94606.72
2018-08-25T11:22:30.222Z,94605.67
2018-08-25T11:24:56.611Z,94603.02
2018-08-25T11:27:22.946Z,94603.83
2018-08-25T11:29:49.341Z,94601.31
2018-08-25T11:32:15.704Z,94603.19
2018-08-25T11:34:42.089Z,94602.84
2018-08-25T11:37:08.482Z,94604.08
2018-08-25T11:39:34.798Z,94607.42
2018-08-25T11:42:01.125Z,94606.59
2018-08-25T11:44:27.531Z,94604.42
2018-08-25T11:46:53.881Z,94611.20
2018-08-25T11:49:20.431Z,94611.71
2018-08-25T11:51:46.792Z,94604.73
2018-08-25T11:54:13.167Z,94598.26
2018-08-25T11:56:39.549Z,94592.19
2018-08-25T11:59:05.887Z,94595.06
2018-08-25T12:01:32.384Z,94595.13
2018-08-25T12:03:58.791Z,94597.88
2018-08-25T12:06:25.159Z,94597.24
2018-08-25T12:08:51.482Z,94589.81
2018-08-25T12:11:17.858Z,94591.11
2018-08-25T12:13:44.169Z,94588.90
2018-08-25T12:16:10.588Z,94592.78
2018-08-25T12:18:36.914Z,94591.59
2018-08-25T12:21:03.278Z,94581.70
2018-08-25T12:23:29.676Z,94580.07
2018-08-25T12:25:56.106Z,94569.17
2018-08-25T12:28:22.591Z,94558.64
2018-08-25T12:30:48.989Z,94555.17
2018-08-25T12:33:15.368Z,94554.18
2018-08-25T12:35:41.838Z,94554.34
2018-08-25T12:38:08.193Z,94549.89
2018-08-25T12:40:34.603Z,94553.36
2018-08-25T12:43:00.994Z,94559.36
2018-08-25T12:45:27.331Z,94557.75
2018-08-25T12:47:53.788Z,94561.06
2018-08-25T12:50:20.181Z,94554.34
2018-08-25T12:52:46.552Z,94553.53
2018-08-25T12:55:13.016Z,94553.53
2018-08-25T12:57:39.416Z,94551.48
2018-08-25T13:00:05.779Z,94547.47
2018-08-25T13:02:32.194Z,94546.72
2018-08-25T13:04:58.516Z,94545.48
2018-08-25T13:07:24.938Z,94540.31
2018-08-25T13:09:51.223Z,94540.72
2018-08-25T13:12:17.592Z,94535.06
2018-08-25T13:14:44.071Z,94534.25
2018-08-25T13:17:10.412Z,94531.01
2018-08-25T13:19:36.748Z,94531.34
2018-08-25T13:22:03.334Z,94525.90
2018-08-25T13:24:29.614Z,94529.44
2018-08-25T13:26:55.964Z,94533.83
2018-08-25T13:29:22.342Z,94528.31
2018-08-25T13:31:48.674Z,94521.77
2018-08-25T13:34:15.168Z,94521.97
2018-08-25T13:36:41.572Z,94520.50
2018-08-25T13:39:07.987Z,94525.34
2018-08-25T13:41:34.360Z,94521.55
2018-08-25T13:44:00.746Z,94519.98
2018-08-25T13:46:27.280Z,94516.11
2018-08-25T13:48:53.631Z,94514.56
2018-08-25T13:51:19.979Z,94515.66
2018-08-25T13:53:46.363Z,94511.84
2018-08-25T13:56:12.692Z,94509.31
2018-08-25T13:58:39.084Z,94507.61
2018-08-25T14:01:05.425Z,94501.03
2018-08-25T14:03:31.789Z,94503.14
2018-08-25T14:05:58.128Z,94498.92
2018-08-25T14:08:24.665Z,94493.98
2018-08-25T14:10:50.906Z,94491.73
2018-08-25T14:13:17.287Z,94487.27
2018-08-25T14:15:43.617Z,94492.92
2018-08-25T14:18:09.975Z,94487.33
2018-08-25T14:20:36.306Z,94480.11
2018-08-25T14:23:02.667Z,94483.59
2018-08-25T14:25:29.044Z,94489.81
2018-08-25T14:27:55.375Z,94493.22
2018-08-25T14:30:21.751Z,94494.71
2018-08-25T14:32:48.082Z,94495.69
2018-08-25T14:35:14.500Z,94495.34
2018-08-25T14:37:40.869Z,94492.77
2018-08-25T14:40:07.255Z,94494.29
2018-08-25T14:42:33.625Z,94498.98
2018-08-25T14:44:59.955Z,94499.46
2018-08-25T14:47:26.277Z,94505.52
2018-08-25T14:49:52.607Z,94502.94
2018-08-25T14:52:18.949Z,94508.24
2018-08-25T14:54:45.318Z,94509.29
2018-08-25T14:57:12.602Z,94511.81
2018-08-25T14:59:38.927Z,94502.48
2018-08-25T15:02:05.300Z,94510.17
2018-08-25T15:04:31.639Z,94511.60
2018-08-25T15:06:57.977Z,94507.31
2018-08-25T15:09:24.337Z,94505.23
2018-08-25T15:11:50.721Z,94500.53
2018-08-25T15:14:17.081Z,94501.55
2018-08-25T15:16:43.395Z,94499.95
2018-08-25T15:19:09.773Z,94503.32
2018-08-25T15:21:36.115Z,94494.27
2018-08-25T15:24:02.593Z,94491.67
2018-08-25T15:26:29.086Z,94492.48
2018-08-25T15:28:55.616Z,94486.90
2018-08-25T15:31:21.940Z,94487.62
2018-08-25T15:33:48.367Z,94488.91
2018-08-25T15:36:14.708Z,94486.22
2018-08-25T15:38:41.047Z,94489.08
2018-08-25T15:41:07.425Z,94490.78
2018-08-25T15:43:33.807Z,94492.62
2018-08-25T15:46:00.175Z,94496.09
2018-08-25T15:48:26.554Z,94495.74
2018-08-25T15:50:52.922Z,94494.14
2018-08-25T15:53:19.298Z,94491.95
2018-08-25T15:55:45.663Z,94495.63
2018-08-25T15:58:12.054Z,94488.75
2018-08-25T16:00:38.401Z,94493.61
2018-08-25T16:03:04.787Z,94491.98
2018-08-25T16:05:31.119Z,94487.97
2018-08-25T16:07:57.456Z,94480.41
2018-08-25T16:10:23.787Z,94480.41
2018-08-25T16:12:50.275Z,94489.21
2018-08-25T16:15:16.680Z,94505.14
2018-08-25T16:17:43.020Z,94522.08
2018-08-25T16:20:09.429Z,94526.30
2018-08-25T16:22:35.682Z,94524.19
2018-08-25T16:25:02.049Z,94517.07
2018-08-25T16:27:28.452Z,94523.19
2018-08-25T16:29:54.781Z,94518.56
2018-08-25T16:32:21.155Z,94521.83
2018-08-25T16:34:47.546Z,94525.94
2018-08-25T16:37:13.919Z,94528.02
2018-08-25T16:39:40.272Z,94535.25
2018-08-25T16:42:06.695Z,94536.95
2018-08-25T16:44:33.037Z,94543.70
2018-08-25T16:46:59.370Z,94547.70
2018-08-25T16:49:25.753Z,94544.30
2018-08-25T16:51:52.100Z,94543.36
2018-08-25T16:54:18.459Z,94546.10
2018-08-25T16:56:44.918Z,94553.23
2018-08-25T16:59:11.291Z,94540.41
2018-08-25T17:01:37.621Z,94540.00
2018-08-25T17:04:04.000Z,94541.60
2018-08-25T17:06:30.327Z,94539.59
2018-08-25T17:08:56.701Z,94544.89
2018-08-25T17:11:23.121Z,94548.22
2018-08-25T17:13:49.504Z,94557.34
2018-08-25T17:16:15.877Z,94561.56
2018-08-25T17:18:42.212Z,94560.97
2018-08-25T17:21:08.630Z,94557.21
2018-08-25T17:23:34.911Z,94560.92
2018-08-25T17:26:01.241Z,94564.15
2018-08-25T17:28:27.636Z,94570.14
2018-08-25T17:30:53.973Z,94576.60
2018-08-25T17:33:20.353Z,94578.03
2018-08-25T17:35:46.719Z,94574.72
2018-08-25T17:38:13.100Z,94577.48
2018-08-25T17:40:39.427Z,94576.55
2018-08-25T17:43:05.801Z,94573.20
2018-08-25T17:45:32.125Z,94578.31
2018-08-25T17:47:58.543Z,94578.79
2018-08-25T17:50:24.891Z,94572.20
2018-08-25T17:52:51.293Z,94573.50
2018-08-25T17:55:17.611Z,94572.21
2018-08-25T17:57:44.125Z,94571.62
2018-08-25T18:00:10.310Z,94574.32
2018-08-25T18:02:36.648Z,94576.69
2018-08-25T18:05:02.978Z,94570.98
2018-08-25T18:07:29.404Z,94571.27
2018-08-25T18:09:55.736Z,94577.67
2018-08-25T18:12:22.057Z,94587.66
2018-08-25T18:14:48.374Z,94583.19
2018-08-25T18:17:14.718Z,94584.83
2018-08-25T18:19:41.047Z,94584.67
2018-08-25T18:22:07.408Z,94583.79
2018-08-25T18:24:33.744Z,94583.20
2018-08-25T18:27:00.074Z,94581.61
2018-08-25T18:29:26.436Z,94577.20
2018-08-25T18:31:52.836Z,94586.12
2018-08-25T18:34:19.180Z,94574.55
2018-08-25T18:36:45.578Z,94577.55
2018-08-25T18:39:11.911Z,94580.42
2018-08-25T18:41:38.365Z,94576.42
2018-08-25T18:44:04.729Z,94582.00
2018-08-25T18:46:31.067Z,94582.41
2018-08-25T18:48:57.477Z,94580.14
2018-08-25T18:51:23.847Z,94580.55
2018-08-25T18:53:50.242Z,94586.63
2018-08-25T18:56:16.592Z,94583.17
2018-08-25T18:58:42.927Z,94580.36
2018-08-25T19:01:09.278Z,94579.30
2018-08-25T19:03:35.614Z,94580.45
2018-08-25T19:06:01.977Z,94571.95
2018-08-25T19:08:28.333Z,94578.28
2018-08-25T19:10:54.822Z,94583.05
2018-08-25T19:13:21.129Z,94581.63
2018-08-25T19:15:47.505Z,94580.99
2018-08-25T19:18:13.861Z,94577.47
2018-08-25T19:20:40.251Z,94580.62
2018-08-25T19:23:06.574Z,94575.64
2018-08-25T19:25:32.879Z,94575.98
2018-08-25T19:27:59.212Z,94575.61
2018-08-25T19:30:25.589Z,94581.84
2018-08-25T19:32:52.002Z,94589.60
2018-08-25T19:35:18.338Z,94592.44
2018-08-25T19:37:44.703Z,94594.17
2018-08-25T19:40:11.039Z,94603.88
2018-08-25T19:42:37.363Z,94601.64
2018-08-25T19:45:03.699Z,94599.59
2018-08-25T19:47:30.034Z,94600.41
2018-08-25T19:49:56.358Z,94597.10
2018-08-25T19:52:22.696Z,94597.57
2018-08-25T19:54:49.024Z,94598.67
2018-08-25T19:57:15.348Z,94601.48
2018-08-25T19:59:41.680Z,94598.27
2018-08-25T20:02:08.011Z,94597.80
2018-08-25T20:04:34.372Z,94599.20
2018-08-25T20:07:00.711Z,94598.55
2018-08-25T20:09:27.087Z,94598.39
2018-08-25T20:11:53.403Z,94597.25
2018-08-25T20:14:19.721Z,94607.46
2018-08-25T20:16:46.065Z,94604.81
2018-08-25T20:19:12.394Z,94605.16
2018-08-25T20:21:38.834Z,94609.16
2018-08-25T20:24:05.223Z,94603.58
2018-08-25T20:26:31.555Z,94605.22
2018-08-25T20:28:57.895Z,94600.59
2018-08-25T20:31:24.219Z,94599.39
2018-08-25T20:33:50.552Z,94607.55
2018-08-25T20:36:16.882Z,94606.80
2018-08-25T20:38:43.228Z,94611.02
2018-08-25T20:41:09.554Z,94604.55
2018-08-25T20:43:35.973Z,94607.01
2018-08-25T20:46:02.362Z,94602.59
2018-08-25T20:48:28.705Z,94603.67
2018-08-25T20:50:55.217Z,94602.85
2018-08-25T20:53:21.681Z,94600.45
2018-08-25T20:55:47.939Z,94601.16
2018-08-25T20:58:14.325Z,94600.42
2018-08-25T21:00:40.726Z,94608.17
2018-08-25T21:03:07.065Z,94609.73
2018-08-25T21:05:33.418Z,94609.05
2018-08-25T21:07:59.777Z,94606.88
2018-08-25T21:10:26.184Z,94609.39
2018-08-25T21:12:52.544Z,94606.65
2018-08-25T21:15:18.886Z,94607.28
2018-08-25T21:17:45.218Z,94608.95
2018-08-25T21:20:11.577Z,94603.52
2018-08-25T21:22:37.913Z,94601.16
2018-08-25T21:25:04.275Z,94595.52
2018-08-25T21:27:30.607Z,94590.96
2018-08-25T21:29:56.949Z,94593.73
2018-08-25T21:32:23.269Z,94590.20
2018-08-25T21:34:49.612Z,94590.83
2018-08-25T21:37:15.940Z,94588.80
2018-08-25T21:39:42.275Z,94595.16
2018-08-25T21:42:08.660Z,94593.21
2018-08-25T21:44:34.988Z,94600.74
2018-08-25T21:47:01.327Z,94588.38
2018-08-25T21:49:27.709Z,94588.92
2018-08-25T21:51:54.138Z,94587.14
2018-08-25T21:54:20.490Z,94588.52
2018-08-25T21:56:46.813Z,94585.47
2018-08-25T21:59:13.151Z,94589.33
2018-08-25T22:01:39.520Z,94589.61
2018-08-25T22:04:05.857Z,94590.77
2018-08-25T22:06:32.245Z,94588.31
2018-08-25T22:08:58.579Z,94583.50
2018-08-25T22:11:24.912Z,94583.78
2018-08-25T22:13:51.253Z,94588.17
2018-08-25T22:16:17.585Z,94586.01
2018-08-25T22:18:43.960Z,94583.52
2018-08-25T22:21:10.436Z,94582.27
2018-08-25T22:23:36.771Z,94582.00
2018-08-25T22:26:03.096Z,94573.72
2018-08-25T22:28:29.421Z,94575.55
2018-08-25T22:30:55.745Z,94582.09
2018-08-25T22:33:22.086Z,94580.86
2018-08-25T22:35:48.417Z,94575.84
2018-08-25T22:38:14.748Z,94578.56
2018-08-25T22:40:41.082Z,94575.78
2018-08-25T22:43:07.435Z,94574.13
2018-08-25T22:45:33.783Z,94571.14
2018-08-25T22:48:00.104Z,94571.55
2018-08-25T22:50:26.443Z,94573.72
2018-08-25T22:52:52.866Z,94570.20
2018-08-25T22:55:19.298Z,94565.98
2018-08-25T22:57:45.648Z,94574.50
2018-08-25T23:00:11.999Z,94569.59
2018-08-25T23:02:38.392Z,94572.45
2018-08-25T23:05:04.908Z,94572.92
2018-08-25T23:07:31.276Z,94572.92
2018-08-25T23:09:57.640Z,94567.89
2018-08-25T23:12:23.975Z,94562.92
2018-08-25T23:14:50.346Z,94562.73
2018-08-25T23:17:16.724Z,94562.20
2018-08-25T23:19:43.049Z,94564.36
2018-08-25T23:22:09.376Z,94561.17
2018-08-25T23:24:35.723Z,94561.44
2018-08-25T23:27:02.128Z,94559.00
2018-08-25T23:29:28.520Z,94562.24
2018-08-25T23:31:54.883Z,94562.89
2018-08-25T23:34:21.308Z,94563.49
2018-08-25T23:36:47.638Z,94563.55
2018-08-25T23:39:14.017Z,94559.33
2018-08-25T23:41:40.396Z,94556.69
2018-08-25T23:44:06.812Z,94560.22
2018-08-25T23:46:33.147Z,94559.41
2018-08-25T23:48:59.512Z,94558.19
2018-08-25T23:51:25.880Z,94554.33
2018-08-25T23:53:52.245Z,94552.63
2018-08-25T23:56:18.575Z,94553.35
2018-08-25T23:58:45.007Z,94552.94
